createdAt,value
2019-01-11T00:00:33.028Z,1.10
2019-01-11T00:03:01.583Z,1.20
2019-01-11T00:05:30.171Z,1.30
2019-01-11T00:07:58.729Z,1.30
2019-01-11T00:10:27.311Z,1.40
2019-01-11T00:12:55.937Z,1.40
2019-01-11T00:15:24.592Z,1.40
2019-01-11T00:17:53.221Z,1.30
2019-01-11T00:20:21.808Z,1.30
2019-01-11T00:22:50.360Z,1.40
2019-01-11T00:25:18.945Z,1.40
2019-01-11T00:27:47.580Z,1.40
2019-01-11T00:30:16.477Z,1.40
2019-01-11T00:32:45.038Z,1.40
2019-01-11T00:35:13.625Z,1.40
2019-01-11T00:37:42.181Z,1.30
2019-01-11T00:40:10.906Z,1.30
2019-01-11T00:42:39.459Z,1.30
2019-01-11T00:45:10.489Z,1.30
2019-01-11T00:47:39.116Z,1.30
2019-01-11T00:50:09.419Z,1.40
2019-01-11T00:52:38.153Z,1.50
2019-01-11T00:55:08.259Z,1.50
2019-01-11T00:57:36.980Z,1.40
2019-01-11T01:00:14.476Z,1.40
2019-01-11T01:02:43.141Z,1.40
2019-01-11T01:05:12.107Z,1.50
2019-01-11T01:07:40.769Z,1.50
2019-01-11T01:10:09.469Z,1.40
2019-01-11T01:12:38.055Z,1.50
2019-01-11T01:15:10.087Z,1.50
2019-01-11T01:17:38.816Z,1.50
2019-01-11T01:20:19.560Z,1.50
2019-01-11T01:22:48.148Z,1.30
2019-01-11T01:25:16.946Z,1.20
2019-01-11T01:27:45.610Z,1.30
2019-01-11T01:30:17.002Z,1.40
2019-01-11T01:32:45.828Z,1.50
2019-01-11T01:35:14.524Z,1.50
2019-01-11T01:37:43.348Z,1.60
2019-01-11T01:40:16.907Z,1.60
2019-01-11T01:42:45.631Z,1.60
2019-01-11T01:45:16.197Z,1.60
2019-01-11T01:47:44.928Z,1.60
2019-01-11T01:50:13.724Z,1.60
2019-01-11T01:52:42.656Z,1.60
2019-01-11T01:55:13.158Z,1.50
2019-01-11T01:57:41.819Z,1.50
2019-01-11T02:00:16.367Z,1.50
2019-01-11T02:02:45.136Z,1.60
2019-01-11T02:05:14.501Z,1.60
2019-01-11T02:07:43.156Z,1.60
2019-01-11T02:10:12.850Z,1.60
2019-01-11T02:12:41.507Z,1.50
2019-01-11T02:15:11.200Z,1.40
2019-01-11T02:17:39.944Z,1.40
2019-01-11T02:20:11.482Z,1.30
2019-01-11T02:22:40.205Z,1.40
2019-01-11T02:25:09.099Z,1.40
2019-01-11T02:27:37.758Z,1.30
2019-01-11T02:30:20.541Z,1.30
2019-01-11T02:32:52.902Z,1.20
2019-01-11T02:35:19.494Z,1.30
2019-01-11T02:37:48.317Z,1.30
2019-01-11T02:40:17.013Z,1.30
2019-01-11T02:42:45.672Z,1.30
2019-01-11T02:45:17.266Z,1.30
2019-01-11T02:47:45.833Z,1.30
2019-01-11T02:50:15.357Z,1.30
2019-01-11T02:52:44.050Z,1.30
2019-01-11T02:55:12.879Z,1.30
2019-01-11T02:57:41.513Z,1.30
2019-01-11T03:00:18.790Z,1.40
2019-01-11T03:02:47.523Z,1.30
2019-01-11T03:05:16.354Z,1.40
2019-01-11T03:07:45.256Z,1.40
2019-01-11T03:10:16.048Z,1.30
2019-01-11T03:12:44.675Z,1.30
2019-01-11T03:15:14.313Z,1.40
2019-01-11T03:17:43.176Z,1.50
2019-01-11T03:20:13.712Z,1.60
2019-01-11T03:22:42.611Z,1.60
2019-01-11T03:25:13.601Z,1.70
2019-01-11T03:27:42.505Z,1.60
2019-01-11T03:30:16.549Z,1.60
2019-01-11T03:32:45.251Z,1.60
2019-01-11T03:35:15.645Z,1.60
2019-01-11T03:37:45.344Z,1.60
2019-01-11T03:40:19.647Z,1.60
2019-01-11T03:42:48.351Z,1.70
2019-01-11T03:45:19.384Z,1.70
2019-01-11T03:47:48.012Z,1.70
2019-01-11T03:50:18.352Z,1.70
2019-01-11T03:52:47.044Z,1.70
2019-01-11T03:55:16.378Z,1.70
2019-01-11T03:57:45.069Z,1.70
2019-01-11T04:00:21.573Z,1.50
2019-01-11T04:02:50.373Z,1.50
2019-01-11T04:05:19.127Z,1.40
2019-01-11T04:07:47.824Z,1.40
2019-01-11T04:10:20.853Z,1.40
2019-01-11T04:12:49.549Z,1.40
2019-01-11T04:15:19.950Z,1.40
2019-01-11T04:17:50.975Z,1.50
2019-01-11T04:20:20.104Z,1.50
2019-01-11T04:22:52.815Z,1.50
2019-01-11T04:25:23.098Z,1.60
2019-01-11T04:27:52.091Z,1.60
2019-01-11T04:30:21.097Z,1.70
2019-01-11T04:32:49.664Z,1.70
2019-01-11T04:35:18.674Z,1.70
2019-01-11T04:37:47.405Z,1.70
2019-01-11T04:40:16.577Z,1.70
2019-01-11T04:42:45.246Z,1.70
2019-01-11T04:45:14.136Z,1.60
2019-01-11T04:47:42.969Z,1.70
2019-01-11T04:50:14.374Z,1.70
2019-01-11T04:52:42.963Z,1.60
2019-01-11T04:55:12.165Z,1.70
2019-01-11T04:57:40.764Z,1.70
2019-01-11T05:00:18.029Z,1.80
2019-01-11T05:02:46.616Z,1.90
2019-01-11T05:05:15.516Z,1.90
2019-01-11T05:07:44.168Z,1.80
2019-01-11T05:10:17.178Z,1.80
2019-01-11T05:12:45.904Z,1.60
2019-01-11T05:15:14.807Z,1.60
2019-01-11T05:17:43.397Z,1.70
2019-01-11T05:20:16.730Z,1.70
2019-01-11T05:22:43.840Z,1.70
2019-01-11T05:25:12.712Z,1.70
2019-01-11T05:27:41.304Z,1.70
2019-01-11T05:30:14.913Z,1.70
2019-01-11T05:32:43.500Z,1.70
2019-01-11T05:35:12.131Z,1.70
2019-01-11T05:37:40.805Z,1.80
2019-01-11T05:40:17.119Z,1.80
2019-01-11T05:42:45.848Z,1.70
2019-01-11T05:45:15.212Z,1.70
2019-01-11T05:47:43.885Z,1.70
2019-01-11T05:50:15.276Z,1.70
2019-01-11T05:52:43.950Z,1.70
2019-01-11T05:55:14.293Z,1.80
2019-01-11T05:57:44.504Z,1.80
2019-01-11T06:00:13.131Z,1.80
2019-01-11T06:02:41.720Z,1.80
2019-01-11T06:05:11.797Z,1.80
2019-01-11T06:07:42.030Z,1.80
2019-01-11T06:10:13.424Z,1.90
2019-01-11T06:12:42.164Z,1.90
2019-01-11T06:15:10.980Z,2.00
2019-01-11T06:17:39.726Z,2.00
2019-01-11T06:20:11.690Z,2.10
2019-01-11T06:22:40.348Z,2.00
2019-01-11T06:25:09.056Z,2.00
2019-01-11T06:27:38.361Z,2.00
2019-01-11T06:30:10.120Z,1.90
2019-01-11T06:32:38.776Z,2.00
2019-01-11T06:35:07.476Z,2.00
2019-01-11T06:37:36.055Z,1.90
2019-01-11T06:40:07.763Z,1.90
2019-01-11T06:42:36.332Z,1.90
2019-01-11T06:45:07.832Z,2.00
2019-01-11T06:47:36.406Z,2.10
2019-01-11T06:50:10.619Z,2.00
2019-01-11T06:52:39.184Z,2.10
2019-01-11T06:55:08.721Z,2.10
2019-01-11T06:57:37.353Z,2.10
2019-01-11T07:00:11.722Z,2.20
2019-01-11T07:02:40.284Z,2.20
2019-01-11T07:05:10.694Z,2.10
2019-01-11T07:07:39.257Z,2.10
2019-01-11T07:10:16.627Z,2.20
2019-01-11T07:12:45.180Z,2.20
2019-01-11T07:15:13.912Z,2.20
2019-01-11T07:17:42.481Z,2.20
2019-01-11T07:20:14.763Z,2.20
2019-01-11T07:22:43.464Z,2.30
2019-01-11T07:25:13.900Z,2.20
2019-01-11T07:27:48.176Z,2.20
2019-01-11T07:30:31.391Z,2.20
2019-01-11T07:33:03.748Z,2.10
2019-01-11T07:36:07.543Z,2.10
2019-01-11T07:38:39.460Z,2.00
2019-01-11T07:41:08.153Z,2.00
2019-01-11T07:43:36.710Z,2.00
2019-01-11T07:46:05.744Z,2.00
2019-01-11T07:48:34.385Z,2.00
2019-01-11T07:51:02.972Z,2.00
2019-01-11T07:53:31.548Z,1.90
2019-01-11T07:56:00.140Z,2.00
2019-01-11T07:58:28.700Z,2.00
2019-01-11T08:00:57.367Z,2.00
2019-01-11T08:03:25.923Z,2.00
2019-01-11T08:05:54.533Z,2.00
2019-01-11T08:08:23.171Z,1.90
2019-01-11T08:10:51.788Z,2.10
2019-01-11T08:13:20.392Z,2.20
2019-01-11T08:15:48.997Z,2.20
2019-01-11T08:18:17.638Z,2.20
2019-01-11T08:20:46.224Z,2.10
2019-01-11T08:23:14.783Z,2.10
2019-01-11T08:25:43.374Z,2.00
2019-01-11T08:28:12.869Z,2.10
2019-01-11T08:30:41.436Z,2.10
2019-01-11T08:33:10.033Z,2.10
2019-01-11T08:35:38.669Z,2.10
2019-01-11T08:38:07.333Z,2.10
2019-01-11T08:40:35.960Z,2.20
2019-01-11T08:43:04.556Z,2.10
2019-01-11T08:45:33.126Z,2.30
2019-01-11T08:48:01.713Z,2.30
2019-01-11T08:50:30.417Z,2.20
2019-01-11T08:52:59.011Z,2.30
2019-01-11T08:55:28.917Z,2.30
2019-01-11T08:57:57.584Z,2.30
2019-01-11T09:00:26.147Z,2.30
2019-01-11T09:02:54.741Z,2.40
2019-01-11T09:05:23.381Z,2.50
2019-01-11T09:07:51.977Z,2.50
2019-01-11T09:10:23.275Z,2.50
2019-01-11T09:12:50.789Z,2.60
2019-01-11T09:15:19.488Z,2.60
2019-01-11T09:17:52.554Z,2.60
2019-01-11T09:20:21.123Z,2.40
2019-01-11T09:22:49.796Z,2.50
2019-01-11T09:25:18.501Z,2.50
2019-01-11T09:27:47.094Z,2.50
2019-01-11T09:30:15.811Z,2.50
2019-01-11T09:32:44.463Z,2.50
2019-01-11T09:35:13.037Z,2.50
2019-01-11T09:37:42.431Z,2.60
2019-01-11T09:40:11.504Z,2.70
2019-01-11T09:42:40.100Z,2.70
2019-01-11T09:45:09.400Z,2.70
2019-01-11T09:47:37.992Z,2.70
2019-01-11T09:50:08.892Z,2.70
2019-01-11T09:52:37.493Z,2.50
2019-01-11T09:55:07.300Z,2.40
2019-01-11T09:57:36.008Z,2.50
2019-01-11T10:00:19.605Z,2.30
2019-01-11T10:02:49.909Z,2.40
2019-01-11T10:05:18.545Z,2.40
2019-01-11T10:07:47.181Z,2.60
2019-01-11T10:10:16.010Z,2.60
2019-01-11T10:12:44.580Z,2.70
2019-01-11T10:15:14.920Z,2.70
2019-01-11T10:17:43.725Z,2.60
2019-01-11T10:20:13.656Z,2.70
2019-01-11T10:22:42.362Z,2.70
2019-01-11T10:25:11.605Z,2.70
2019-01-11T10:27:40.244Z,2.80
2019-01-11T10:30:19.364Z,2.90
2019-01-11T10:32:48.070Z,2.90
2019-01-11T10:35:16.730Z,2.80
2019-01-11T10:37:45.367Z,2.70
2019-01-11T10:40:18.253Z,2.60
2019-01-11T10:42:47.042Z,2.70
2019-01-11T10:45:20.504Z,2.70
2019-01-11T10:47:50.704Z,2.80
2019-01-11T10:50:19.436Z,2.60
2019-01-11T10:52:48.136Z,2.60
2019-01-11T10:55:17.867Z,2.50
2019-01-11T10:57:46.981Z,2.60
2019-01-11T11:00:18.845Z,2.60
2019-01-11T11:02:47.481Z,2.60
2019-01-11T11:05:16.068Z,2.60
2019-01-11T11:07:44.631Z,2.50
2019-01-11T11:10:14.360Z,2.50
2019-01-11T11:12:42.926Z,2.50
2019-01-11T11:15:14.155Z,2.60
2019-01-11T11:17:42.715Z,2.30
2019-01-11T11:20:13.847Z,2.40
2019-01-11T11:22:43.925Z,2.50
2019-01-11T11:25:20.398Z,2.50
2019-01-11T11:27:49.073Z,2.60
2019-01-11T11:30:18.883Z,2.60
2019-01-11T11:32:51.625Z,2.80
2019-01-11T11:35:20.222Z,2.80
2019-01-11T11:37:48.857Z,2.70
2019-01-11T11:40:17.520Z,2.60
2019-01-11T11:42:46.085Z,2.70
2019-01-11T11:45:16.624Z,2.50
2019-01-11T11:47:45.269Z,2.70
2019-01-11T11:50:16.462Z,2.60
2019-01-11T11:52:45.098Z,2.60
2019-01-11T11:55:13.735Z,2.70
2019-01-11T11:57:42.405Z,2.70
2019-01-11T12:00:14.077Z,2.80
2019-01-11T12:02:42.739Z,2.60
2019-01-11T12:05:11.445Z,2.80
2019-01-11T12:07:40.105Z,2.80
2019-01-11T12:10:11.537Z,2.90
2019-01-11T12:12:40.107Z,3.00
2019-01-11T12:15:10.300Z,2.90
2019-01-11T12:17:38.896Z,2.70
2019-01-11T12:20:10.533Z,2.70
2019-01-11T12:22:39.931Z,2.70
2019-01-11T12:25:08.675Z,2.60
2019-01-11T12:27:37.259Z,2.70
2019-01-11T12:30:11.591Z,2.80
2019-01-11T12:32:40.192Z,2.80
2019-01-11T12:35:08.901Z,2.80
2019-01-11T12:37:37.565Z,2.70
2019-01-11T12:40:09.171Z,2.80
2019-01-11T12:42:37.759Z,2.90
2019-01-11T12:45:08.965Z,2.80
2019-01-11T12:47:37.557Z,3.00
2019-01-11T12:50:14.977Z,2.90
2019-01-11T12:52:43.636Z,3.00
2019-01-11T12:55:12.443Z,2.90
2019-01-11T12:57:41.040Z,2.90
2019-01-11T13:00:12.648Z,2.80
2019-01-11T13:02:41.265Z,2.80
2019-01-11T13:05:12.672Z,2.80
2019-01-11T13:07:41.357Z,2.90
2019-01-11T13:10:15.407Z,2.80
2019-01-11T13:12:44.141Z,2.90
2019-01-11T13:15:15.156Z,2.80
2019-01-11T13:17:43.825Z,2.90
2019-01-11T13:20:14.431Z,3.00
2019-01-11T13:22:43.264Z,3.10
2019-01-11T13:25:11.969Z,3.10
2019-01-11T13:27:40.558Z,3.00
2019-01-11T13:30:17.816Z,3.00
2019-01-11T13:32:46.551Z,3.10
2019-01-11T13:35:15.254Z,3.10
2019-01-11T13:37:43.920Z,3.10
2019-01-11T13:40:15.048Z,3.00
2019-01-11T13:42:43.781Z,3.00
2019-01-11T13:45:12.753Z,3.00
2019-01-11T13:47:41.461Z,3.00
2019-01-11T13:50:18.879Z,2.90
2019-01-11T13:52:47.441Z,3.00
2019-01-11T13:55:16.056Z,3.00
2019-01-11T13:57:44.620Z,3.10
2019-01-11T14:00:16.005Z,3.20
2019-01-11T14:02:44.653Z,3.20
2019-01-11T14:05:13.389Z,3.10
2019-01-11T14:07:42.095Z,3.20
2019-01-11T14:10:10.949Z,3.10
2019-01-11T14:12:39.514Z,3.10
2019-01-11T14:15:10.453Z,3.00
2019-01-11T14:17:39.159Z,3.00
2019-01-11T14:20:10.553Z,3.00
2019-01-11T14:22:39.279Z,2.80
2019-01-11T14:25:09.558Z,2.80
2019-01-11T14:27:38.208Z,2.70
2019-01-11T14:30:15.795Z,2.90
2019-01-11T14:32:44.693Z,2.90
2019-01-11T14:35:13.287Z,2.90
2019-01-11T14:37:41.917Z,2.80
2019-01-11T14:40:15.768Z,2.90
2019-01-11T14:42:44.399Z,2.80
2019-01-11T14:45:15.142Z,2.90
2019-01-11T14:47:43.847Z,2.80
2019-01-11T14:50:14.383Z,2.80
2019-01-11T14:52:43.088Z,2.70
2019-01-11T14:55:11.820Z,2.80
2019-01-11T14:57:40.457Z,2.70
2019-01-11T15:00:14.848Z,2.80
2019-01-11T15:02:43.480Z,2.80
2019-01-11T15:05:13.516Z,2.80
2019-01-11T15:07:42.088Z,2.90
2019-01-11T15:10:12.619Z,2.80
2019-01-11T15:12:42.715Z,2.90
2019-01-11T15:15:11.386Z,2.90
2019-01-11T15:17:39.956Z,3.00
2019-01-11T15:20:11.457Z,2.90
2019-01-11T15:22:40.165Z,2.90
2019-01-11T15:25:10.290Z,2.80
2019-01-11T15:27:38.982Z,2.80
2019-01-11T15:30:10.626Z,2.80
2019-01-11T15:32:39.195Z,2.90
2019-01-11T15:35:08.926Z,2.90
2019-01-11T15:37:37.488Z,2.80
2019-01-11T15:40:09.156Z,2.80
2019-01-11T15:42:39.140Z,2.90
2019-01-11T15:45:08.404Z,2.90
2019-01-11T15:47:36.996Z,2.90
2019-01-11T15:50:11.369Z,2.90
2019-01-11T15:52:39.970Z,2.80
2019-01-11T15:55:09.965Z,2.80
2019-01-11T15:57:40.200Z,2.80
2019-01-11T16:00:20.056Z,2.80
2019-01-11T16:02:48.997Z,2.80
2019-01-11T16:05:17.560Z,2.80
2019-01-11T16:07:46.288Z,2.90
2019-01-11T16:10:17.598Z,2.90
2019-01-11T16:12:46.637Z,2.90
2019-01-11T16:15:27.345Z,2.90
2019-01-11T16:18:01.683Z,2.90
2019-01-11T16:20:30.257Z,2.80
2019-01-11T16:22:58.857Z,2.90
2019-01-11T16:25:27.424Z,2.90
2019-01-11T16:27:56.191Z,2.90
2019-01-11T16:30:24.833Z,2.90
2019-01-11T16:32:53.427Z,2.80
2019-01-11T16:35:22.061Z,2.70
2019-01-11T16:37:50.665Z,2.80
2019-01-11T16:40:19.257Z,2.60
2019-01-11T16:42:47.852Z,2.60
2019-01-11T16:45:16.769Z,2.80
2019-01-11T16:47:48.284Z,2.80
2019-01-11T16:50:18.763Z,2.70
2019-01-11T16:52:47.445Z,2.80
2019-01-11T16:55:16.107Z,2.70
2019-01-11T16:57:44.711Z,2.70
2019-01-11T17:00:16.417Z,2.80
2019-01-11T17:02:45.090Z,2.60
2019-01-11T17:05:14.087Z,2.60
2019-01-11T17:07:42.740Z,2.50
2019-01-11T17:10:12.833Z,2.50
2019-01-11T17:12:41.909Z,2.50
2019-01-11T17:15:18.230Z,2.50
2019-01-11T17:17:46.892Z,2.60
2019-01-11T17:20:17.009Z,2.50
2019-01-11T17:22:45.668Z,2.50
2019-01-11T17:25:14.305Z,2.50
2019-01-11T17:27:43.068Z,2.50
2019-01-11T17:30:14.708Z,2.50
2019-01-11T17:32:43.506Z,2.60
2019-01-11T17:35:12.240Z,2.60
2019-01-11T17:37:40.946Z,2.60
2019-01-11T17:40:11.188Z,2.60
2019-01-11T17:42:39.880Z,2.60
2019-01-11T17:45:11.141Z,2.70
2019-01-11T17:47:39.824Z,2.70
2019-01-11T17:50:14.121Z,2.70
2019-01-11T17:52:42.915Z,2.60
2019-01-11T17:55:11.647Z,2.60
2019-01-11T17:57:40.353Z,2.60
2019-01-11T18:00:14.717Z,2.60
2019-01-11T18:02:43.416Z,2.70
2019-01-11T18:05:13.854Z,2.60
2019-01-11T18:07:42.487Z,2.60
2019-01-11T18:10:12.021Z,2.70
2019-01-11T18:12:40.820Z,2.60
2019-01-11T18:15:12.368Z,2.70
2019-01-11T18:17:40.992Z,2.70
2019-01-11T18:20:15.149Z,2.80
2019-01-11T18:22:43.780Z,2.80
2019-01-11T18:25:12.713Z,2.70
2019-01-11T18:27:41.283Z,2.70
2019-01-11T18:30:15.452Z,2.70
2019-01-11T18:32:44.019Z,2.80
2019-01-11T18:35:13.353Z,2.80
2019-01-11T18:37:42.048Z,2.80
2019-01-11T18:40:22.192Z,2.80
2019-01-11T18:42:50.816Z,2.60
2019-01-11T18:45:19.581Z,2.70
2019-01-11T18:47:48.148Z,2.70
2019-01-11T18:50:21.441Z,2.70
2019-01-11T18:52:50.149Z,2.80
2019-01-11T18:55:18.883Z,2.80
2019-01-11T18:57:47.680Z,2.70
2019-01-11T19:00:23.973Z,2.70
2019-01-11T19:02:52.675Z,2.80
2019-01-11T19:05:21.395Z,2.80
2019-01-11T19:07:50.128Z,2.80
2019-01-11T19:10:20.341Z,2.70
2019-01-11T19:12:48.972Z,2.70
2019-01-11T19:15:20.008Z,2.80
2019-01-11T19:17:48.639Z,2.90
2019-01-11T19:20:27.762Z,2.90
2019-01-11T19:22:56.459Z,3.00
2019-01-11T19:25:25.159Z,3.00
2019-01-11T19:27:53.824Z,2.80
2019-01-11T19:30:24.620Z,2.80
2019-01-11T19:32:53.288Z,2.90
2019-01-11T19:35:21.989Z,2.90
2019-01-11T19:37:50.661Z,2.80
2019-01-11T19:40:19.360Z,2.90
2019-01-11T19:42:47.971Z,2.90
2019-01-11T19:45:17.663Z,3.00
2019-01-11T19:47:46.256Z,2.90
2019-01-11T19:50:20.250Z,2.90
2019-01-11T19:52:50.217Z,2.90
2019-01-11T19:55:19.253Z,2.90
2019-01-11T19:57:47.913Z,2.90
2019-01-11T20:00:21.445Z,2.90
2019-01-11T20:02:50.816Z,2.80
2019-01-11T20:05:20.225Z,2.90
2019-01-11T20:07:48.975Z,2.90
2019-01-11T20:10:25.524Z,2.90
2019-01-11T20:12:54.191Z,2.90
2019-01-11T20:15:22.899Z,3.00
2019-01-11T20:17:51.634Z,3.00
2019-01-11T20:20:20.315Z,2.90
2019-01-11T20:22:49.076Z,2.90
2019-01-11T20:25:22.709Z,2.90
2019-01-11T20:27:51.551Z,2.90
2019-01-11T20:30:22.348Z,3.00
2019-01-11T20:32:51.008Z,3.00
2019-01-11T20:35:19.713Z,3.00
2019-01-11T20:37:48.743Z,3.00
2019-01-11T20:40:17.849Z,2.90
2019-01-11T20:42:46.513Z,3.00
2019-01-11T20:45:16.940Z,2.90
2019-01-11T20:47:45.669Z,2.90
2019-01-11T20:50:19.049Z,2.90
2019-01-11T20:52:47.888Z,3.10
2019-01-11T20:55:16.945Z,3.00
2019-01-11T20:57:45.883Z,2.90
2019-01-11T21:00:20.301Z,2.90
2019-01-11T21:02:48.975Z,2.90
2019-01-11T21:05:17.723Z,3.00
2019-01-11T21:07:46.437Z,3.00
2019-01-11T21:10:15.638Z,3.00
2019-01-11T21:12:44.301Z,3.00
2019-01-11T21:15:16.010Z,2.90
2019-01-11T21:17:44.754Z,3.00
2019-01-11T21:20:18.149Z,2.90
2019-01-11T21:22:46.896Z,2.90
2019-01-11T21:25:17.308Z,3.00
2019-01-11T21:27:46.073Z,3.10
2019-01-11T21:30:17.707Z,3.20
2019-01-11T21:32:46.530Z,3.10
2019-01-11T21:35:15.227Z,3.10
2019-01-11T21:37:45.727Z,3.10
2019-01-11T21:40:18.968Z,3.20
2019-01-11T21:42:48.499Z,3.10
2019-01-11T21:45:17.847Z,3.20
2019-01-11T21:47:46.545Z,3.10
2019-01-11T21:50:19.824Z,3.00
2019-01-11T21:52:48.526Z,3.10
2019-01-11T21:55:17.454Z,3.10
2019-01-11T21:57:46.251Z,3.20
2019-01-11T22:00:17.822Z,3.10
2019-01-11T22:02:46.376Z,3.00
2019-01-11T22:05:15.405Z,3.10
2019-01-11T22:07:44.034Z,3.20
2019-01-11T22:10:15.437Z,3.20
2019-01-11T22:12:44.068Z,3.30
2019-01-11T22:15:15.696Z,3.30
2019-01-11T22:17:44.261Z,3.30
2019-01-11T22:20:15.353Z,3.20
2019-01-11T22:22:44.049Z,3.20
2019-01-11T22:25:16.412Z,3.20
2019-01-11T22:27:45.087Z,3.30
2019-01-11T22:30:18.623Z,3.30
2019-01-11T22:32:47.188Z,3.30
2019-01-11T22:35:15.912Z,3.40
2019-01-11T22:37:44.608Z,3.40
2019-01-11T22:40:17.940Z,3.40
2019-01-11T22:42:47.047Z,3.30
2019-01-11T22:45:15.971Z,3.30
2019-01-11T22:47:44.673Z,3.30
2019-01-11T22:50:15.300Z,3.30
2019-01-11T22:52:44.129Z,3.40
2019-01-11T22:55:17.437Z,3.50
2019-01-11T22:57:46.063Z,3.50
2019-01-11T23:00:41.958Z,3.40
2019-01-11T23:03:13.590Z,3.40
2019-01-11T23:05:42.191Z,3.40
2019-01-11T23:08:12.979Z,3.50
2019-01-11T23:10:44.689Z,3.50
2019-01-11T23:13:13.312Z,3.50
2019-01-11T23:15:42.069Z,3.60
2019-01-11T23:18:10.699Z,3.50
2019-01-11T23:20:39.304Z,3.50
2019-01-11T23:23:07.936Z,3.40
2019-01-11T23:25:36.599Z,3.40
2019-01-11T23:28:05.331Z,3.30
2019-01-11T23:30:33.985Z,3.40
2019-01-11T23:33:02.544Z,3.40
2019-01-11T23:35:31.199Z,3.50
2019-01-11T23:37:59.760Z,3.40
2019-01-11T23:40:28.347Z,3.40
2019-01-11T23:42:56.908Z,3.50
2019-01-11T23:45:25.500Z,3.50
2019-01-11T23:47:55.676Z,3.50
2019-01-11T23:50:24.419Z,3.40
2019-01-11T23:52:52.984Z,3.40
2019-01-11T23:55:21.635Z,3.50
2019-01-11T23:57:50.195Z,3.50
